sensor_id;sensor_type;location;lat;lon;timestamp;P1;durP1;ratioP1;P2;durP2;ratioP2
42246;SDS011;27913;42.722;23.268;2023-03-14T00:04:53;24.38;;;8.32;;
42246;SDS011;27913;42.722;23.268;2023-03-14T00:07:20;18.45;;;8.27;;
42246;SDS011;27913;42.722;23.268;2023-03-14T00:09:45;24.80;;;9.60;;
42246;SDS011;27913;42.722;23.268;2023-03-14T00:12:11;23.50;;;10.10;;
42246;SDS011;27913;42.722;23.268;2023-03-14T00:14:36;25.35;;;10.23;;
42246;SDS011;27913;42.722;23.268;2023-03-14T00:17:02;24.95;;;8.77;;
42246;SDS011;27913;42.722;23.268;2023-03-14T00:19:27;21.33;;;9.20;;
42246;SDS011;27913;42.722;23.268;2023-03-14T00:21:53;23.92;;;9.77;;
42246;SDS011;27913;42.722;23.268;2023-03-14T00:24:18;25.52;;;11.02;;
42246;SDS011;27913;42.722;23.268;2023-03-14T00:26:44;29.40;;;11.73;;
42246;SDS011;27913;42.722;23.268;2023-03-14T00:29:09;34.78;;;11.48;;
42246;SDS011;27913;42.722;23.268;2023-03-14T00:31:35;32.03;;;12.07;;
42246;SDS011;27913;42.722;23.268;2023-03-14T00:34:01;38.08;;;12.82;;
42246;SDS011;27913;42.722;23.268;2023-03-14T00:36:26;35.63;;;13.57;;
42246;SDS011;27913;42.722;23.268;2023-03-14T00:38:52;23.80;;;10.40;;
42246;SDS011;27913;42.722;23.268;2023-03-14T00:41:19;20.70;;;7.18;;
42246;SDS011;27913;42.722;23.268;2023-03-14T00:43:48;13.93;;;6.85;;
42246;SDS011;27913;42.722;23.268;2023-03-14T00:46:14;17.08;;;7.47;;
42246;SDS011;27913;42.722;23.268;2023-03-14T00:48:40;19.48;;;7.70;;
42246;SDS011;27913;42.722;23.268;2023-03-14T00:51:06;18.90;;;8.02;;
42246;SDS011;27913;42.722;23.268;2023-03-14T00:53:36;17.65;;;7.72;;
42246;SDS011;27913;42.722;23.268;2023-03-14T00:56:04;13.95;;;6.50;;
42246;SDS011;27913;42.722;23.268;2023-03-14T00:58:32;19.45;;;6.40;;
42246;SDS011;27913;42.722;23.268;2023-03-14T01:00:57;16.92;;;7.28;;
42246;SDS011;27913;42.722;23.268;2023-03-14T01:03:23;18.17;;;6.82;;
42246;SDS011;27913;42.722;23.268;2023-03-14T01:05:49;13.45;;;6.55;;
42246;SDS011;27913;42.722;23.268;2023-03-14T01:08:15;11.13;;;4.95;;
42246;SDS011;27913;42.722;23.268;2023-03-14T01:10:41;14.45;;;6.10;;
42246;SDS011;27913;42.722;23.268;2023-03-14T01:13:07;14.52;;;5.68;;
42246;SDS011;27913;42.722;23.268;2023-03-14T01:15:33;14.57;;;5.57;;
42246;SDS011;27913;42.722;23.268;2023-03-14T01:18:00;13.07;;;5.63;;
42246;SDS011;27913;42.722;23.268;2023-03-14T01:20:25;22.08;;;7.13;;
42246;SDS011;27913;42.722;23.268;2023-03-14T01:22:50;19.33;;;6.65;;
42246;SDS011;27913;42.722;23.268;2023-03-14T01:25:16;16.00;;;5.88;;
42246;SDS011;27913;42.722;23.268;2023-03-14T01:27:42;14.02;;;5.70;;
42246;SDS011;27913;42.722;23.268;2023-03-14T01:30:09;15.07;;;6.20;;
42246;SDS011;27913;42.722;23.268;2023-03-14T01:32:35;15.15;;;5.80;;
42246;SDS011;27913;42.722;23.268;2023-03-14T01:35:01;17.33;;;6.57;;
42246;SDS011;27913;42.722;23.268;2023-03-14T01:37:26;17.70;;;6.72;;
42246;SDS011;27913;42.722;23.268;2023-03-14T01:39:52;15.82;;;7.10;;
42246;SDS011;27913;42.722;23.268;2023-03-14T01:42:17;16.85;;;6.35;;
42246;SDS011;27913;42.722;23.268;2023-03-14T01:44:53;13.07;;;5.53;;
42246;SDS011;27913;42.722;23.268;2023-03-14T01:47:23;15.27;;;5.68;;
42246;SDS011;27913;42.722;23.268;2023-03-14T01:50:10;16.50;;;6.93;;
42246;SDS011;27913;42.722;23.268;2023-03-14T01:52:41;18.70;;;7.30;;
42246;SDS011;27913;42.722;23.268;2023-03-14T01:55:19;18.23;;;7.00;;
42246;SDS011;27913;42.722;23.268;2023-03-14T01:57:53;14.60;;;6.22;;
42246;SDS011;27913;42.722;23.268;2023-03-14T02:00:22;17.13;;;5.57;;
42246;SDS011;27913;42.722;23.268;2023-03-14T02:03:11;15.43;;;5.88;;
42246;SDS011;27913;42.722;23.268;2023-03-14T02:05:37;16.52;;;6.78;;
42246;SDS011;27913;42.722;23.268;2023-03-14T02:08:07;14.82;;;6.15;;
42246;SDS011;27913;42.722;23.268;2023-03-14T02:10:41;20.20;;;7.60;;
42246;SDS011;27913;42.722;23.268;2023-03-14T02:13:09;14.23;;;6.78;;
42246;SDS011;27913;42.722;23.268;2023-03-14T02:15:36;17.88;;;7.28;;
42246;SDS011;27913;42.722;23.268;2023-03-14T02:18:03;19.25;;;8.38;;
42246;SDS011;27913;42.722;23.268;2023-03-14T02:23:07;20.08;;;8.07;;
42246;SDS011;27913;42.722;23.268;2023-03-14T02:28:21;15.10;;;6.95;;
42246;SDS011;27913;42.722;23.268;2023-03-14T02:30:47;15.32;;;7.13;;
42246;SDS011;27913;42.722;23.268;2023-03-14T02:33:13;25.00;;;7.05;;
42246;SDS011;27913;42.722;23.268;2023-03-14T02:35:45;15.98;;;5.22;;
42246;SDS011;27913;42.722;23.268;2023-03-14T02:38:17;15.63;;;5.88;;
42246;SDS011;27913;42.722;23.268;2023-03-14T02:40:48;16.67;;;6.30;;
42246;SDS011;27913;42.722;23.268;2023-03-14T02:43:13;13.23;;;5.70;;
42246;SDS011;27913;42.722;23.268;2023-03-14T02:45:40;17.60;;;7.40;;
42246;SDS011;27913;42.722;23.268;2023-03-14T02:50:40;15.85;;;6.10;;
42246;SDS011;27913;42.722;23.268;2023-03-14T02:53:06;14.80;;;5.85;;
42246;SDS011;27913;42.722;23.268;2023-03-14T02:55:32;14.85;;;5.80;;
42246;SDS011;27913;42.722;23.268;2023-03-14T02:57:58;15.80;;;6.07;;
42246;SDS011;27913;42.722;23.268;2023-03-14T03:00:23;19.13;;;6.00;;
42246;SDS011;27913;42.722;23.268;2023-03-14T03:02:49;15.55;;;5.82;;
42246;SDS011;27913;42.722;23.268;2023-03-14T03:05:16;15.75;;;6.38;;
42246;SDS011;27913;42.722;23.268;2023-03-14T03:07:41;17.10;;;6.80;;
42246;SDS011;27913;42.722;23.268;2023-03-14T03:10:07;17.52;;;6.25;;
42246;SDS011;27913;42.722;23.268;2023-03-14T03:12:33;14.20;;;6.25;;
42246;SDS011;27913;42.722;23.268;2023-03-14T03:14:59;14.85;;;6.03;;
42246;SDS011;27913;42.722;23.268;2023-03-14T03:17:24;14.10;;;6.35;;
42246;SDS011;27913;42.722;23.268;2023-03-14T03:19:50;13.60;;;6.05;;
42246;SDS011;27913;42.722;23.268;2023-03-14T03:22:15;17.88;;;6.15;;
42246;SDS011;27913;42.722;23.268;2023-03-14T03:24:40;11.80;;;5.28;;
42246;SDS011;27913;42.722;23.268;2023-03-14T03:27:06;16.23;;;6.35;;
42246;SDS011;27913;42.722;23.268;2023-03-14T03:29:31;14.63;;;5.32;;
42246;SDS011;27913;42.722;23.268;2023-03-14T03:31:57;14.07;;;5.72;;
42246;SDS011;27913;42.722;23.268;2023-03-14T03:34:23;15.43;;;6.00;;
42246;SDS011;27913;42.722;23.268;2023-03-14T03:36:48;14.20;;;5.22;;
42246;SDS011;27913;42.722;23.268;2023-03-14T03:39:14;14.45;;;5.20;;
42246;SDS011;27913;42.722;23.268;2023-03-14T03:41:39;13.18;;;5.47;;
42246;SDS011;27913;42.722;23.268;2023-03-14T03:44:04;14.95;;;6.75;;
42246;SDS011;27913;42.722;23.268;2023-03-14T03:46:31;13.55;;;6.15;;
42246;SDS011;27913;42.722;23.268;2023-03-14T03:48:57;13.40;;;5.38;;
42246;SDS011;27913;42.722;23.268;2023-03-14T03:51:24;11.43;;;5.20;;
42246;SDS011;27913;42.722;23.268;2023-03-14T03:53:50;11.63;;;4.45;;
42246;SDS011;27913;42.722;23.268;2023-03-14T03:56:15;13.27;;;5.68;;
42246;SDS011;27913;42.722;23.268;2023-03-14T03:58:41;12.80;;;5.38;;
42246;SDS011;27913;42.722;23.268;2023-03-14T04:01:07;12.88;;;5.93;;
42246;SDS011;27913;42.722;23.268;2023-03-14T04:03:33;17.48;;;5.22;;
42246;SDS011;27913;42.722;23.268;2023-03-14T04:06:02;11.50;;;5.07;;
42246;SDS011;27913;42.722;23.268;2023-03-14T04:10:58;13.32;;;5.40;;
42246;SDS011;27913;42.722;23.268;2023-03-14T04:13:26;14.10;;;5.63;;
42246;SDS011;27913;42.722;23.268;2023-03-14T04:15:52;16.75;;;6.05;;
42246;SDS011;27913;42.722;23.268;2023-03-14T04:18:18;18.33;;;7.07;;
42246;SDS011;27913;42.722;23.268;2023-03-14T04:20:44;13.35;;;5.32;;
42246;SDS011;27913;42.722;23.268;2023-03-14T04:23:10;14.27;;;6.55;;
42246;SDS011;27913;42.722;23.268;2023-03-14T04:25:35;14.13;;;5.30;;
42246;SDS011;27913;42.722;23.268;2023-03-14T04:28:01;10.95;;;5.05;;
42246;SDS011;27913;42.722;23.268;2023-03-14T04:30:26;20.35;;;7.22;;
42246;SDS011;27913;42.722;23.268;2023-03-14T04:32:52;23.60;;;9.13;;
42246;SDS011;27913;42.722;23.268;2023-03-14T04:35:17;19.98;;;8.07;;
42246;SDS011;27913;42.722;23.268;2023-03-14T04:37:43;16.58;;;6.13;;
42246;SDS011;27913;42.722;23.268;2023-03-14T04:40:09;18.02;;;6.15;;
42246;SDS011;27913;42.722;23.268;2023-03-14T04:42:35;15.57;;;5.97;;
42246;SDS011;27913;42.722;23.268;2023-03-14T04:45:01;18.10;;;6.57;;
42246;SDS011;27913;42.722;23.268;2023-03-14T04:47:27;15.32;;;6.57;;
42246;SDS011;27913;42.722;23.268;2023-03-14T04:49:53;18.80;;;7.20;;
42246;SDS011;27913;42.722;23.268;2023-03-14T04:52:18;15.45;;;6.63;;
42246;SDS011;27913;42.722;23.268;2023-03-14T04:54:44;20.33;;;7.50;;
42246;SDS011;27913;42.722;23.268;2023-03-14T04:57:09;17.63;;;7.93;;
42246;SDS011;27913;42.722;23.268;2023-03-14T04:59:34;21.73;;;7.63;;
42246;SDS011;27913;42.722;23.268;2023-03-14T05:02:00;25.85;;;8.30;;
42246;SDS011;27913;42.722;23.268;2023-03-14T05:04:25;21.50;;;8.55;;
42246;SDS011;27913;42.722;23.268;2023-03-14T05:06:51;23.25;;;9.10;;
42246;SDS011;27913;42.722;23.268;2023-03-14T05:09:16;21.70;;;9.25;;
42246;SDS011;27913;42.722;23.268;2023-03-14T05:11:42;26.60;;;9.35;;
42246;SDS011;27913;42.722;23.268;2023-03-14T05:14:07;24.02;;;8.70;;
42246;SDS011;27913;42.722;23.268;2023-03-14T05:16:33;25.80;;;9.82;;
42246;SDS011;27913;42.722;23.268;2023-03-14T05:18:58;25.67;;;9.90;;
42246;SDS011;27913;42.722;23.268;2023-03-14T05:21:26;30.13;;;10.52;;
42246;SDS011;27913;42.722;23.268;2023-03-14T05:23:52;21.15;;;10.00;;
42246;SDS011;27913;42.722;23.268;2023-03-14T05:26:17;20.55;;;8.73;;
42246;SDS011;27913;42.722;23.268;2023-03-14T05:28:42;28.65;;;12.45;;
42246;SDS011;27913;42.722;23.268;2023-03-14T05:31:08;43.97;;;19.63;;
42246;SDS011;27913;42.722;23.268;2023-03-14T05:33:34;55.42;;;22.27;;
42246;SDS011;27913;42.722;23.268;2023-03-14T05:36:00;43.25;;;16.20;;
42246;SDS011;27913;42.722;23.268;2023-03-14T05:38:25;23.88;;;12.05;;
42246;SDS011;27913;42.722;23.268;2023-03-14T05:40:51;25.08;;;9.40;;
42246;SDS011;27913;42.722;23.268;2023-03-14T05:43:16;22.08;;;9.38;;
42246;SDS011;27913;42.722;23.268;2023-03-14T05:45:42;26.55;;;10.40;;
42246;SDS011;27913;42.722;23.268;2023-03-14T05:48:08;29.65;;;10.27;;
42246;SDS011;27913;42.722;23.268;2023-03-14T05:50:33;26.73;;;11.25;;
42246;SDS011;27913;42.722;23.268;2023-03-14T05:52:59;28.90;;;10.73;;
42246;SDS011;27913;42.722;23.268;2023-03-14T05:55:24;36.63;;;12.77;;
42246;SDS011;27913;42.722;23.268;2023-03-14T05:57:50;28.85;;;11.25;;
42246;SDS011;27913;42.722;23.268;2023-03-14T06:00:15;32.90;;;11.65;;
42246;SDS011;27913;42.722;23.268;2023-03-14T06:02:41;22.13;;;8.52;;
42246;SDS011;27913;42.722;23.268;2023-03-14T06:05:07;22.75;;;9.10;;
42246;SDS011;27913;42.722;23.268;2023-03-14T06:07:33;18.63;;;8.18;;
42246;SDS011;27913;42.722;23.268;2023-03-14T06:09:59;18.42;;;8.40;;
42246;SDS011;27913;42.722;23.268;2023-03-14T06:12:24;27.33;;;11.23;;
42246;SDS011;27913;42.722;23.268;2023-03-14T06:14:50;26.70;;;10.27;;
42246;SDS011;27913;42.722;23.268;2023-03-14T06:17:15;21.05;;;9.13;;
42246;SDS011;27913;42.722;23.268;2023-03-14T06:19:41;17.48;;;7.85;;
42246;SDS011;27913;42.722;23.268;2023-03-14T06:22:07;14.95;;;5.30;;
42246;SDS011;27913;42.722;23.268;2023-03-14T06:24:33;9.98;;;4.53;;
42246;SDS011;27913;42.722;23.268;2023-03-14T06:26:58;13.18;;;5.25;;
42246;SDS011;27913;42.722;23.268;2023-03-14T06:29:23;9.80;;;4.32;;
42246;SDS011;27913;42.722;23.268;2023-03-14T06:31:49;12.75;;;5.70;;
42246;SDS011;27913;42.722;23.268;2023-03-14T06:34:15;13.32;;;5.18;;
42246;SDS011;27913;42.722;23.268;2023-03-14T06:36:40;14.15;;;5.30;;
42246;SDS011;27913;42.722;23.268;2023-03-14T06:39:05;12.10;;;5.30;;
42246;SDS011;27913;42.722;23.268;2023-03-14T06:41:31;11.27;;;5.13;;
42246;SDS011;27913;42.722;23.268;2023-03-14T06:43:57;12.82;;;5.47;;
42246;SDS011;27913;42.722;23.268;2023-03-14T06:46:23;11.80;;;4.90;;
42246;SDS011;27913;42.722;23.268;2023-03-14T06:48:48;11.98;;;5.30;;
42246;SDS011;27913;42.722;23.268;2023-03-14T06:51:14;12.45;;;5.95;;
42246;SDS011;27913;42.722;23.268;2023-03-14T06:53:40;16.35;;;5.70;;
42246;SDS011;27913;42.722;23.268;2023-03-14T06:56:05;11.88;;;5.72;;
42246;SDS011;27913;42.722;23.268;2023-03-14T06:58:31;13.57;;;5.82;;
42246;SDS011;27913;42.722;23.268;2023-03-14T07:00:57;17.30;;;6.38;;
42246;SDS011;27913;42.722;23.268;2023-03-14T07:03:23;16.90;;;7.10;;
42246;SDS011;27913;42.722;23.268;2023-03-14T07:05:49;17.92;;;7.85;;
42246;SDS011;27913;42.722;23.268;2023-03-14T07:08:15;16.10;;;7.10;;
42246;SDS011;27913;42.722;23.268;2023-03-14T07:10:40;15.13;;;6.82;;
42246;SDS011;27913;42.722;23.268;2023-03-14T07:13:06;16.60;;;7.82;;
42246;SDS011;27913;42.722;23.268;2023-03-14T07:15:31;24.77;;;8.00;;
42246;SDS011;27913;42.722;23.268;2023-03-14T07:17:57;16.63;;;7.20;;
42246;SDS011;27913;42.722;23.268;2023-03-14T07:20:22;17.38;;;6.63;;
42246;SDS011;27913;42.722;23.268;2023-03-14T07:22:48;20.55;;;7.70;;
42246;SDS011;27913;42.722;23.268;2023-03-14T07:25:14;14.77;;;6.60;;
42246;SDS011;27913;42.722;23.268;2023-03-14T07:27:40;18.17;;;6.55;;
42246;SDS011;27913;42.722;23.268;2023-03-14T07:30:08;28.33;;;7.50;;
42246;SDS011;27913;42.722;23.268;2023-03-14T07:32:34;16.48;;;6.88;;
42246;SDS011;27913;42.722;23.268;2023-03-14T07:35:00;16.63;;;7.05;;
42246;SDS011;27913;42.722;23.268;2023-03-14T07:37:25;20.15;;;7.38;;
42246;SDS011;27913;42.722;23.268;2023-03-14T07:39:50;18.85;;;8.05;;
42246;SDS011;27913;42.722;23.268;2023-03-14T07:42:16;17.48;;;7.03;;
42246;SDS011;27913;42.722;23.268;2023-03-14T07:44:41;22.90;;;8.35;;
42246;SDS011;27913;42.722;23.268;2023-03-14T07:47:07;17.20;;;6.65;;
42246;SDS011;27913;42.722;23.268;2023-03-14T07:49:32;23.30;;;7.68;;
42246;SDS011;27913;42.722;23.268;2023-03-14T07:51:58;18.88;;;5.97;;
42246;SDS011;27913;42.722;23.268;2023-03-14T07:54:24;15.07;;;7.20;;
42246;SDS011;27913;42.722;23.268;2023-03-14T07:56:50;18.05;;;7.28;;
42246;SDS011;27913;42.722;23.268;2023-03-14T07:59:16;21.55;;;7.85;;
42246;SDS011;27913;42.722;23.268;2023-03-14T08:01:42;16.73;;;6.63;;
42246;SDS011;27913;42.722;23.268;2023-03-14T08:04:07;14.07;;;5.88;;
42246;SDS011;27913;42.722;23.268;2023-03-14T08:06:34;18.48;;;7.50;;
42246;SDS011;27913;42.722;23.268;2023-03-14T08:09:00;16.20;;;6.50;;
42246;SDS011;27913;42.722;23.268;2023-03-14T08:11:26;14.85;;;6.40;;
42246;SDS011;27913;42.722;23.268;2023-03-14T08:13:51;16.80;;;6.47;;
42246;SDS011;27913;42.722;23.268;2023-03-14T08:16:17;15.45;;;6.13;;
42246;SDS011;27913;42.722;23.268;2023-03-14T08:18:43;12.80;;;6.10;;
42246;SDS011;27913;42.722;23.268;2023-03-14T08:21:09;16.52;;;6.63;;
42246;SDS011;27913;42.722;23.268;2023-03-14T08:23:35;16.33;;;6.82;;
42246;SDS011;27913;42.722;23.268;2023-03-14T08:26:00;15.75;;;6.90;;
42246;SDS011;27913;42.722;23.268;2023-03-14T08:28:26;14.75;;;6.88;;
42246;SDS011;27913;42.722;23.268;2023-03-14T08:30:55;16.83;;;6.75;;
42246;SDS011;27913;42.722;23.268;2023-03-14T08:33:21;24.65;;;6.85;;
42246;SDS011;27913;42.722;23.268;2023-03-14T08:35:48;17.48;;;6.70;;
42246;SDS011;27913;42.722;23.268;2023-03-14T08:38:13;16.65;;;6.88;;
42246;SDS011;27913;42.722;23.268;2023-03-14T08:40:39;17.65;;;7.93;;
42246;SDS011;27913;42.722;23.268;2023-03-14T08:43:05;16.35;;;6.82;;
42246;SDS011;27913;42.722;23.268;2023-03-14T08:45:30;14.65;;;6.20;;
42246;SDS011;27913;42.722;23.268;2023-03-14T08:47:57;12.90;;;5.13;;
42246;SDS011;27913;42.722;23.268;2023-03-14T08:50:22;28.25;;;11.15;;
42246;SDS011;27913;42.722;23.268;2023-03-14T08:52:49;20.65;;;7.75;;
42246;SDS011;27913;42.722;23.268;2023-03-14T08:55:14;13.05;;;5.57;;
42246;SDS011;27913;42.722;23.268;2023-03-14T08:57:40;13.85;;;5.03;;
42246;SDS011;27913;42.722;23.268;2023-03-14T09:00:06;10.50;;;4.25;;
42246;SDS011;27913;42.722;23.268;2023-03-14T09:02:40;7.32;;;3.33;;
42246;SDS011;27913;42.722;23.268;2023-03-14T09:05:06;11.02;;;4.40;;
42246;SDS011;27913;42.722;23.268;2023-03-14T09:07:32;10.32;;;3.78;;
42246;SDS011;27913;42.722;23.268;2023-03-14T09:09:58;9.77;;;3.47;;
42246;SDS011;27913;42.722;23.268;2023-03-14T09:12:23;8.93;;;3.33;;
42246;SDS011;27913;42.722;23.268;2023-03-14T09:14:48;7.55;;;3.60;;
42246;SDS011;27913;42.722;23.268;2023-03-14T09:17:14;7.07;;;2.80;;
42246;SDS011;27913;42.722;23.268;2023-03-14T09:19:39;11.30;;;3.28;;
42246;SDS011;27913;42.722;23.268;2023-03-14T09:22:05;7.65;;;3.67;;
42246;SDS011;27913;42.722;23.268;2023-03-14T09:24:30;7.43;;;2.58;;
42246;SDS011;27913;42.722;23.268;2023-03-14T09:26:56;7.90;;;3.17;;
42246;SDS011;27913;42.722;23.268;2023-03-14T09:29:22;8.18;;;3.20;;
42246;SDS011;27913;42.722;23.268;2023-03-14T09:31:47;5.72;;;2.15;;
42246;SDS011;27913;42.722;23.268;2023-03-14T09:34:13;7.35;;;1.88;;
42246;SDS011;27913;42.722;23.268;2023-03-14T09:36:38;5.38;;;2.17;;
42246;SDS011;27913;42.722;23.268;2023-03-14T09:39:04;6.32;;;2.30;;
42246;SDS011;27913;42.722;23.268;2023-03-14T09:44:05;6.38;;;2.17;;
42246;SDS011;27913;42.722;23.268;2023-03-14T09:46:32;5.18;;;2.20;;
42246;SDS011;27913;42.722;23.268;2023-03-14T09:49:00;6.30;;;2.40;;
42246;SDS011;27913;42.722;23.268;2023-03-14T09:51:26;7.40;;;2.42;;
42246;SDS011;27913;42.722;23.268;2023-03-14T09:53:53;5.57;;;1.95;;
42246;SDS011;27913;42.722;23.268;2023-03-14T09:56:25;12.18;;;2.92;;
42246;SDS011;27913;42.722;23.268;2023-03-14T09:59:03;9.13;;;2.35;;
42246;SDS011;27913;42.722;23.268;2023-03-14T10:01:33;5.70;;;2.20;;
42246;SDS011;27913;42.722;23.268;2023-03-14T10:04:04;6.47;;;2.45;;
42246;SDS011;27913;42.722;23.268;2023-03-14T10:06:38;6.13;;;2.22;;
42246;SDS011;27913;42.722;23.268;2023-03-14T10:09:03;7.45;;;2.40;;
42246;SDS011;27913;42.722;23.268;2023-03-14T10:11:30;8.25;;;3.03;;
42246;SDS011;27913;42.722;23.268;2023-03-14T10:16:40;11.48;;;4.43;;
42246;SDS011;27913;42.722;23.268;2023-03-14T10:19:12;8.50;;;3.20;;
42246;SDS011;27913;42.722;23.268;2023-03-14T10:21:40;7.50;;;2.85;;
42246;SDS011;27913;42.722;23.268;2023-03-14T10:24:18;8.43;;;2.97;;
42246;SDS011;27913;42.722;23.268;2023-03-14T10:26:44;6.35;;;2.70;;
42246;SDS011;27913;42.722;23.268;2023-03-14T10:29:13;6.20;;;2.35;;
42246;SDS011;27913;42.722;23.268;2023-03-14T10:31:50;18.35;;;4.47;;
42246;SDS011;27913;42.722;23.268;2023-03-14T10:34:24;65.70;;;16.17;;
42246;SDS011;27913;42.722;23.268;2023-03-14T10:36:52;14.80;;;4.68;;
42246;SDS011;27913;42.722;23.268;2023-03-14T10:41:54;5.68;;;1.90;;
42246;SDS011;27913;42.722;23.268;2023-03-14T10:44:26;6.15;;;2.00;;
42246;SDS011;27913;42.722;23.268;2023-03-14T10:47:03;7.13;;;2.97;;
42246;SDS011;27913;42.722;23.268;2023-03-14T10:49:34;8.38;;;2.60;;
42246;SDS011;27913;42.722;23.268;2023-03-14T10:52:46;6.82;;;2.53;;
42246;SDS011;27913;42.722;23.268;2023-03-14T10:54:58;9.48;;;2.63;;
42246;SDS011;27913;42.722;23.268;2023-03-14T10:57:26;6.55;;;2.30;;
42246;SDS011;27913;42.722;23.268;2023-03-14T10:59:51;5.05;;;2.42;;
42246;SDS011;27913;42.722;23.268;2023-03-14T11:07:56;9.52;;;2.97;;
42246;SDS011;27913;42.722;23.268;2023-03-14T11:10:31;8.05;;;2.88;;
42246;SDS011;27913;42.722;23.268;2023-03-14T11:29:24;6.60;;;2.30;;
42246;SDS011;27913;42.722;23.268;2023-03-14T11:33:00;10.02;;;2.90;;
42246;SDS011;27913;42.722;23.268;2023-03-14T11:34:57;9.45;;;3.20;;
42246;SDS011;27913;42.722;23.268;2023-03-14T11:37:29;5.85;;;2.30;;
42246;SDS011;27913;42.722;23.268;2023-03-14T11:40:17;6.05;;;2.47;;
42246;SDS011;27913;42.722;23.268;2023-03-14T11:43:11;4.70;;;2.03;;
42246;SDS011;27913;42.722;23.268;2023-03-14T11:45:38;4.43;;;1.65;;
42246;SDS011;27913;42.722;23.268;2023-03-14T11:50:46;7.38;;;2.28;;
42246;SDS011;27913;42.722;23.268;2023-03-14T11:53:16;5.43;;;1.85;;
42246;SDS011;27913;42.722;23.268;2023-03-14T11:55:47;15.18;;;3.75;;
42246;SDS011;27913;42.722;23.268;2023-03-14T11:58:23;6.40;;;2.35;;
42246;SDS011;27913;42.722;23.268;2023-03-14T12:00:51;4.60;;;2.08;;
42246;SDS011;27913;42.722;23.268;2023-03-14T12:03:30;5.55;;;2.03;;
42246;SDS011;27913;42.722;23.268;2023-03-14T12:06:26;6.22;;;1.98;;
42246;SDS011;27913;42.722;23.268;2023-03-14T12:09:08;5.60;;;2.25;;
42246;SDS011;27913;42.722;23.268;2023-03-14T12:14:01;3.60;;;1.50;;
42246;SDS011;27913;42.722;23.268;2023-03-14T12:16:37;4.53;;;1.58;;
42246;SDS011;27913;42.722;23.268;2023-03-14T12:21:48;6.55;;;2.10;;
42246;SDS011;27913;42.722;23.268;2023-03-14T12:24:18;4.30;;;1.47;;
42246;SDS011;27913;42.722;23.268;2023-03-14T12:26:52;5.88;;;1.95;;
42246;SDS011;27913;42.722;23.268;2023-03-14T12:29:20;5.15;;;1.25;;
42246;SDS011;27913;42.722;23.268;2023-03-14T12:31:47;4.18;;;1.45;;
42246;SDS011;27913;42.722;23.268;2023-03-14T12:42:00;2.80;;;1.30;;
42246;SDS011;27913;42.722;23.268;2023-03-14T12:47:41;3.05;;;1.30;;
42246;SDS011;27913;42.722;23.268;2023-03-14T12:49:43;4.90;;;1.48;;
42246;SDS011;27913;42.722;23.268;2023-03-14T12:52:13;4.38;;;1.33;;
42246;SDS011;27913;42.722;23.268;2023-03-14T13:00:46;4.38;;;1.48;;
42246;SDS011;27913;42.722;23.268;2023-03-14T13:03:20;6.57;;;1.73;;
42246;SDS011;27913;42.722;23.268;2023-03-14T13:05:57;3.17;;;1.30;;
42246;SDS011;27913;42.722;23.268;2023-03-14T13:08:35;4.78;;;1.63;;
42246;SDS011;27913;42.722;23.268;2023-03-14T13:11:15;3.72;;;1.08;;
42246;SDS011;27913;42.722;23.268;2023-03-14T13:13:47;8.43;;;1.20;;
42246;SDS011;27913;42.722;23.268;2023-03-14T13:16:16;3.45;;;1.15;;
42246;SDS011;27913;42.722;23.268;2023-03-14T13:19:09;4.65;;;1.20;;
42246;SDS011;27913;42.722;23.268;2023-03-14T13:21:35;4.32;;;1.20;;
42246;SDS011;27913;42.722;23.268;2023-03-14T13:26:37;2.10;;;0.82;;
42246;SDS011;27913;42.722;23.268;2023-03-14T13:31:45;3.30;;;1.10;;
42246;SDS011;27913;42.722;23.268;2023-03-14T13:34:12;5.97;;;1.25;;
42246;SDS011;27913;42.722;23.268;2023-03-14T13:36:38;3.58;;;1.23;;
42246;SDS011;27913;42.722;23.268;2023-03-14T13:39:05;4.93;;;1.58;;
42246;SDS011;27913;42.722;23.268;2023-03-14T13:41:37;4.88;;;1.15;;
42246;SDS011;27913;42.722;23.268;2023-03-14T13:44:05;4.47;;;1.65;;
42246;SDS011;27913;42.722;23.268;2023-03-14T13:46:34;5.97;;;1.20;;
42246;SDS011;27913;42.722;23.268;2023-03-14T13:49:05;3.35;;;1.02;;
42246;SDS011;27913;42.722;23.268;2023-03-14T13:51:34;5.82;;;1.13;;
42246;SDS011;27913;42.722;23.268;2023-03-14T13:54:03;6.97;;;1.00;;
42246;SDS011;27913;42.722;23.268;2023-03-14T13:56:30;2.72;;;0.82;;
42246;SDS011;27913;42.722;23.268;2023-03-14T13:58:57;4.18;;;1.08;;
42246;SDS011;27913;42.722;23.268;2023-03-14T14:01:27;2.58;;;1.25;;
42246;SDS011;27913;42.722;23.268;2023-03-14T14:03:56;2.17;;;0.85;;
42246;SDS011;27913;42.722;23.268;2023-03-14T14:08:52;3.15;;;0.80;;
42246;SDS011;27913;42.722;23.268;2023-03-14T14:14:10;1.60;;;0.80;;
42246;SDS011;27913;42.722;23.268;2023-03-14T14:16:43;7.88;;;1.67;;
42246;SDS011;27913;42.722;23.268;2023-03-14T14:19:10;4.38;;;1.25;;
42246;SDS011;27913;42.722;23.268;2023-03-14T14:21:36;6.97;;;1.30;;
42246;SDS011;27913;42.722;23.268;2023-03-14T14:24:02;3.88;;;1.30;;
42246;SDS011;27913;42.722;23.268;2023-03-14T14:26:29;4.03;;;1.42;;
42246;SDS011;27913;42.722;23.268;2023-03-14T14:29:00;3.67;;;1.23;;
42246;SDS011;27913;42.722;23.268;2023-03-14T14:31:27;3.65;;;1.10;;
42246;SDS011;27913;42.722;23.268;2023-03-14T14:39:19;2.80;;;0.82;;
42246;SDS011;27913;42.722;23.268;2023-03-14T14:41:50;6.70;;;1.17;;
42246;SDS011;27913;42.722;23.268;2023-03-14T14:44:18;3.15;;;1.30;;
42246;SDS011;27913;42.722;23.268;2023-03-14T14:46:54;4.60;;;1.45;;
42246;SDS011;27913;42.722;23.268;2023-03-14T14:49:20;6.10;;;1.30;;
42246;SDS011;27913;42.722;23.268;2023-03-14T14:51:49;3.75;;;1.30;;
42246;SDS011;27913;42.722;23.268;2023-03-14T14:54:20;4.45;;;1.23;;
42246;SDS011;27913;42.722;23.268;2023-03-14T14:57:04;4.20;;;1.05;;
42246;SDS011;27913;42.722;23.268;2023-03-14T14:59:30;2.83;;;1.20;;
42246;SDS011;27913;42.722;23.268;2023-03-14T15:02:00;4.55;;;1.13;;
42246;SDS011;27913;42.722;23.268;2023-03-14T15:04:27;3.47;;;1.10;;
42246;SDS011;27913;42.722;23.268;2023-03-14T15:06:55;6.63;;;1.20;;
42246;SDS011;27913;42.722;23.268;2023-03-14T15:09:20;7.20;;;1.40;;
42246;SDS011;27913;42.722;23.268;2023-03-14T15:11:47;3.15;;;0.80;;
42246;SDS011;27913;42.722;23.268;2023-03-14T15:14:13;2.08;;;0.95;;
42246;SDS011;27913;42.722;23.268;2023-03-14T15:16:39;1.85;;;0.80;;
42246;SDS011;27913;42.722;23.268;2023-03-14T15:19:10;5.63;;;1.30;;
42246;SDS011;27913;42.722;23.268;2023-03-14T15:21:45;3.65;;;0.95;;
42246;SDS011;27913;42.722;23.268;2023-03-14T15:24:11;3.17;;;1.08;;
42246;SDS011;27913;42.722;23.268;2023-03-14T15:26:36;5.82;;;2.30;;
42246;SDS011;27913;42.722;23.268;2023-03-14T15:29:02;5.85;;;1.15;;
42246;SDS011;27913;42.722;23.268;2023-03-14T15:31:28;5.00;;;1.20;;
42246;SDS011;27913;42.722;23.268;2023-03-14T15:33:53;2.83;;;1.45;;
42246;SDS011;27913;42.722;23.268;2023-03-14T15:36:25;5.35;;;1.63;;
42246;SDS011;27913;42.722;23.268;2023-03-14T15:38:52;7.72;;;1.30;;
42246;SDS011;27913;42.722;23.268;2023-03-14T15:41:19;4.43;;;1.25;;
42246;SDS011;27913;42.722;23.268;2023-03-14T15:43:45;7.45;;;1.83;;
42246;SDS011;27913;42.722;23.268;2023-03-14T15:46:11;5.00;;;1.30;;
42246;SDS011;27913;42.722;23.268;2023-03-14T15:48:38;5.63;;;1.58;;
42246;SDS011;27913;42.722;23.268;2023-03-14T15:51:04;5.63;;;2.17;;
42246;SDS011;27913;42.722;23.268;2023-03-14T15:53:29;7.03;;;2.50;;